sensor_id;sensor_type;location;lat;lon;timestamp;P1;durP1;ratioP1;P2;durP2;ratioP2
69161;SDS011;56269;51.738;21.652;2022-09-03T00:00:32;8.15;;;3.10;;
69161;SDS011;56269;51.738;21.652;2022-09-03T00:03:08;8.95;;;3.33;;
69161;SDS011;56269;51.738;21.652;2022-09-03T00:05:44;8.27;;;3.35;;
69161;SDS011;56269;51.738;21.652;2022-09-03T00:13:19;9.05;;;2.95;;
69161;SDS011;56269;51.738;21.652;2022-09-03T00:15:50;9.18;;;3.20;;
69161;SDS011;56269;51.738;21.652;2022-09-03T00:18:23;8.18;;;3.13;;
69161;SDS011;56269;51.738;21.652;2022-09-03T00:20:56;10.13;;;3.47;;
69161;SDS011;56269;51.738;21.652;2022-09-03T00:23:33;10.30;;;3.28;;
69161;SDS011;56269;51.738;21.652;2022-09-03T00:28:40;8.40;;;2.95;;
69161;SDS011;56269;51.738;21.652;2022-09-03T00:31:24;9.07;;;3.65;;
69161;SDS011;56269;51.738;21.652;2022-09-03T00:36:56;7.63;;;3.00;;
69161;SDS011;56269;51.738;21.652;2022-09-03T00:39:23;9.38;;;3.58;;
69161;SDS011;56269;51.738;21.652;2022-09-03T00:41:59;7.07;;;2.92;;
69161;SDS011;56269;51.738;21.652;2022-09-03T00:47:24;9.00;;;3.30;;
69161;SDS011;56269;51.738;21.652;2022-09-03T00:58:27;8.35;;;3.15;;
69161;SDS011;56269;51.738;21.652;2022-09-03T01:01:00;9.33;;;3.30;;
69161;SDS011;56269;51.738;21.652;2022-09-03T01:03:38;8.43;;;3.22;;
69161;SDS011;56269;51.738;21.652;2022-09-03T01:06:16;9.20;;;3.40;;
69161;SDS011;56269;51.738;21.652;2022-09-03T01:08:55;9.13;;;3.10;;
69161;SDS011;56269;51.738;21.652;2022-09-03T01:14:42;8.90;;;3.53;;
69161;SDS011;56269;51.738;21.652;2022-09-03T01:17:25;8.73;;;3.40;;
69161;SDS011;56269;51.738;21.652;2022-09-03T01:23:06;7.70;;;3.17;;
69161;SDS011;56269;51.738;21.652;2022-09-03T01:31:40;10.02;;;3.15;;
69161;SDS011;56269;51.738;21.652;2022-09-03T01:45:16;9.10;;;3.28;;
69161;SDS011;56269;51.738;21.652;2022-09-03T01:50:54;7.57;;;2.70;;
69161;SDS011;56269;51.738;21.652;2022-09-03T01:53:44;8.55;;;3.40;;
69161;SDS011;56269;51.738;21.652;2022-09-03T02:00:00;9.38;;;3.00;;
69161;SDS011;56269;51.738;21.652;2022-09-03T02:02:35;6.90;;;2.78;;
69161;SDS011;56269;51.738;21.652;2022-09-03T02:05:05;7.72;;;3.15;;
69161;SDS011;56269;51.738;21.652;2022-09-03T02:07:44;8.15;;;3.00;;
69161;SDS011;56269;51.738;21.652;2022-09-03T02:10:15;8.20;;;3.00;;
69161;SDS011;56269;51.738;21.652;2022-09-03T02:12:48;6.95;;;2.83;;
69161;SDS011;56269;51.738;21.652;2022-09-03T02:15:19;8.05;;;3.00;;
69161;SDS011;56269;51.738;21.652;2022-09-03T02:17:47;7.88;;;3.10;;
69161;SDS011;56269;51.738;21.652;2022-09-03T02:20:20;7.80;;;2.80;;
69161;SDS011;56269;51.738;21.652;2022-09-03T02:22:48;7.67;;;2.73;;
69161;SDS011;56269;51.738;21.652;2022-09-03T02:25:15;10.05;;;2.85;;
69161;SDS011;56269;51.738;21.652;2022-09-03T02:27:42;8.05;;;2.92;;
69161;SDS011;56269;51.738;21.652;2022-09-03T02:30:09;7.65;;;3.00;;
69161;SDS011;56269;51.738;21.652;2022-09-03T02:32:36;8.48;;;3.22;;
69161;SDS011;56269;51.738;21.652;2022-09-03T02:35:02;8.27;;;3.07;;
69161;SDS011;56269;51.738;21.652;2022-09-03T02:37:28;8.35;;;2.90;;
69161;SDS011;56269;51.738;21.652;2022-09-03T02:39:54;8.40;;;3.30;;
69161;SDS011;56269;51.738;21.652;2022-09-03T02:42:20;7.70;;;2.97;;
69161;SDS011;56269;51.738;21.652;2022-09-03T02:44:47;8.07;;;2.97;;
69161;SDS011;56269;51.738;21.652;2022-09-03T02:47:19;7.10;;;3.28;;
69161;SDS011;56269;51.738;21.652;2022-09-03T02:49:47;8.32;;;3.10;;
69161;SDS011;56269;51.738;21.652;2022-09-03T02:52:13;9.77;;;3.28;;
69161;SDS011;56269;51.738;21.652;2022-09-03T02:54:40;7.45;;;3.00;;
69161;SDS011;56269;51.738;21.652;2022-09-03T02:57:07;8.73;;;3.10;;
69161;SDS011;56269;51.738;21.652;2022-09-03T02:59:34;7.65;;;3.15;;
69161;SDS011;56269;51.738;21.652;2022-09-03T03:02:01;9.73;;;3.55;;
69161;SDS011;56269;51.738;21.652;2022-09-03T03:04:31;7.75;;;2.97;;
69161;SDS011;56269;51.738;21.652;2022-09-03T03:06:58;8.50;;;3.20;;
69161;SDS011;56269;51.738;21.652;2022-09-03T03:09:24;8.57;;;3.73;;
69161;SDS011;56269;51.738;21.652;2022-09-03T03:11:50;7.82;;;3.30;;
69161;SDS011;56269;51.738;21.652;2022-09-03T03:14:16;8.35;;;3.42;;
69161;SDS011;56269;51.738;21.652;2022-09-03T03:16:43;9.18;;;3.28;;
69161;SDS011;56269;51.738;21.652;2022-09-03T03:19:09;10.30;;;3.63;;
69161;SDS011;56269;51.738;21.652;2022-09-03T03:21:35;8.07;;;3.03;;
69161;SDS011;56269;51.738;21.652;2022-09-03T03:24:01;7.65;;;3.20;;
69161;SDS011;56269;51.738;21.652;2022-09-03T03:26:28;7.72;;;3.15;;
69161;SDS011;56269;51.738;21.652;2022-09-03T03:28:55;8.02;;;3.40;;
69161;SDS011;56269;51.738;21.652;2022-09-03T03:31:22;11.90;;;3.20;;
69161;SDS011;56269;51.738;21.652;2022-09-03T03:33:49;9.05;;;3.22;;
69161;SDS011;56269;51.738;21.652;2022-09-03T03:36:20;9.68;;;2.90;;
69161;SDS011;56269;51.738;21.652;2022-09-03T03:38:48;9.15;;;3.08;;
69161;SDS011;56269;51.738;21.652;2022-09-03T03:41:15;7.80;;;3.25;;
69161;SDS011;56269;51.738;21.652;2022-09-03T03:43:54;7.93;;;3.13;;
69161;SDS011;56269;51.738;21.652;2022-09-03T03:46:22;9.18;;;3.03;;
69161;SDS011;56269;51.738;21.652;2022-09-03T03:48:50;6.38;;;2.72;;
69161;SDS011;56269;51.738;21.652;2022-09-03T03:51:17;8.65;;;2.90;;
69161;SDS011;56269;51.738;21.652;2022-09-03T03:53:44;7.95;;;3.30;;
69161;SDS011;56269;51.738;21.652;2022-09-03T03:56:12;7.33;;;2.57;;
69161;SDS011;56269;51.738;21.652;2022-09-03T03:58:39;9.60;;;3.00;;
69161;SDS011;56269;51.738;21.652;2022-09-03T04:01:13;7.53;;;2.67;;
69161;SDS011;56269;51.738;21.652;2022-09-03T04:03:44;7.32;;;2.55;;
69161;SDS011;56269;51.738;21.652;2022-09-03T04:06:11;7.15;;;2.65;;
69161;SDS011;56269;51.738;21.652;2022-09-03T04:08:40;7.87;;;2.77;;
69161;SDS011;56269;51.738;21.652;2022-09-03T04:11:08;8.75;;;2.70;;
69161;SDS011;56269;51.738;21.652;2022-09-03T04:13:36;6.50;;;2.67;;
69161;SDS011;56269;51.738;21.652;2022-09-03T04:16:04;7.60;;;2.85;;
69161;SDS011;56269;51.738;21.652;2022-09-03T04:18:33;7.30;;;2.78;;
69161;SDS011;56269;51.738;21.652;2022-09-03T04:21:00;9.30;;;2.83;;
69161;SDS011;56269;51.738;21.652;2022-09-03T04:23:38;8.23;;;2.95;;
69161;SDS011;56269;51.738;21.652;2022-09-03T04:26:09;9.35;;;2.78;;
69161;SDS011;56269;51.738;21.652;2022-09-03T04:28:36;7.80;;;2.88;;
69161;SDS011;56269;51.738;21.652;2022-09-03T04:31:03;9.35;;;2.90;;
69161;SDS011;56269;51.738;21.652;2022-09-03T04:33:31;7.00;;;2.80;;
69161;SDS011;56269;51.738;21.652;2022-09-03T04:36:02;7.72;;;3.15;;
69161;SDS011;56269;51.738;21.652;2022-09-03T04:38:30;7.47;;;2.95;;
69161;SDS011;56269;51.738;21.652;2022-09-03T04:40:58;8.25;;;3.25;;
69161;SDS011;56269;51.738;21.652;2022-09-03T04:43:25;7.28;;;3.00;;
69161;SDS011;56269;51.738;21.652;2022-09-03T04:45:56;6.60;;;2.80;;
69161;SDS011;56269;51.738;21.652;2022-09-03T04:48:23;10.05;;;3.08;;
69161;SDS011;56269;51.738;21.652;2022-09-03T04:50:49;6.72;;;2.90;;
69161;SDS011;56269;51.738;21.652;2022-09-03T04:53:15;7.35;;;2.88;;
69161;SDS011;56269;51.738;21.652;2022-09-03T04:55:41;7.97;;;2.83;;
69161;SDS011;56269;51.738;21.652;2022-09-03T04:58:07;7.50;;;2.93;;
69161;SDS011;56269;51.738;21.652;2022-09-03T05:00:34;9.80;;;2.90;;
69161;SDS011;56269;51.738;21.652;2022-09-03T05:03:01;8.02;;;2.95;;
69161;SDS011;56269;51.738;21.652;2022-09-03T05:05:29;8.15;;;2.78;;
69161;SDS011;56269;51.738;21.652;2022-09-03T05:07:58;6.50;;;2.63;;
69161;SDS011;56269;51.738;21.652;2022-09-03T05:10:26;8.80;;;3.00;;
69161;SDS011;56269;51.738;21.652;2022-09-03T05:13:03;8.45;;;3.20;;
69161;SDS011;56269;51.738;21.652;2022-09-03T05:15:30;6.65;;;2.60;;
69161;SDS011;56269;51.738;21.652;2022-09-03T05:17:58;8.55;;;2.72;;
69161;SDS011;56269;51.738;21.652;2022-09-03T05:20:26;8.03;;;2.90;;
69161;SDS011;56269;51.738;21.652;2022-09-03T05:22:55;6.93;;;2.53;;
69161;SDS011;56269;51.738;21.652;2022-09-03T05:25:21;7.97;;;2.80;;
69161;SDS011;56269;51.738;21.652;2022-09-03T05:27:48;8.95;;;3.03;;
69161;SDS011;56269;51.738;21.652;2022-09-03T05:30:15;9.23;;;2.80;;
69161;SDS011;56269;51.738;21.652;2022-09-03T05:32:41;10.20;;;3.20;;
69161;SDS011;56269;51.738;21.652;2022-09-03T05:35:07;8.70;;;2.70;;
69161;SDS011;56269;51.738;21.652;2022-09-03T05:37:35;7.85;;;2.70;;
69161;SDS011;56269;51.738;21.652;2022-09-03T05:40:02;7.55;;;2.40;;
69161;SDS011;56269;51.738;21.652;2022-09-03T05:42:29;8.93;;;2.80;;
69161;SDS011;56269;51.738;21.652;2022-09-03T05:44:56;8.13;;;2.90;;
69161;SDS011;56269;51.738;21.652;2022-09-03T05:47:22;7.70;;;2.90;;
69161;SDS011;56269;51.738;21.652;2022-09-03T05:49:48;8.98;;;3.00;;
69161;SDS011;56269;51.738;21.652;2022-09-03T05:52:14;8.25;;;2.63;;
69161;SDS011;56269;51.738;21.652;2022-09-03T05:54:41;9.03;;;3.03;;
69161;SDS011;56269;51.738;21.652;2022-09-03T05:57:07;8.73;;;2.95;;
69161;SDS011;56269;51.738;21.652;2022-09-03T05:59:33;8.15;;;2.88;;
69161;SDS011;56269;51.738;21.652;2022-09-03T06:01:59;6.80;;;2.50;;
69161;SDS011;56269;51.738;21.652;2022-09-03T06:04:25;6.63;;;2.70;;
69161;SDS011;56269;51.738;21.652;2022-09-03T06:06:51;6.35;;;2.53;;
69161;SDS011;56269;51.738;21.652;2022-09-03T06:09:20;8.05;;;2.80;;
69161;SDS011;56269;51.738;21.652;2022-09-03T06:11:47;8.57;;;2.60;;
69161;SDS011;56269;51.738;21.652;2022-09-03T06:14:14;8.43;;;2.80;;
69161;SDS011;56269;51.738;21.652;2022-09-03T06:16:41;8.07;;;2.80;;
69161;SDS011;56269;51.738;21.652;2022-09-03T06:19:09;7.50;;;2.45;;
69161;SDS011;56269;51.738;21.652;2022-09-03T06:21:37;7.55;;;2.78;;
69161;SDS011;56269;51.738;21.652;2022-09-03T06:24:07;6.57;;;2.77;;
69161;SDS011;56269;51.738;21.652;2022-09-03T06:26:39;7.68;;;2.72;;
69161;SDS011;56269;51.738;21.652;2022-09-03T06:29:05;8.80;;;3.20;;
69161;SDS011;56269;51.738;21.652;2022-09-03T06:31:32;8.10;;;2.90;;
69161;SDS011;56269;51.738;21.652;2022-09-03T06:34:00;11.85;;;3.03;;
69161;SDS011;56269;51.738;21.652;2022-09-03T06:36:27;8.13;;;2.40;;
69161;SDS011;56269;51.738;21.652;2022-09-03T06:38:54;6.47;;;2.72;;
69161;SDS011;56269;51.738;21.652;2022-09-03T06:41:22;7.43;;;3.03;;
69161;SDS011;56269;51.738;21.652;2022-09-03T06:44:25;6.75;;;2.58;;
69161;SDS011;56269;51.738;21.652;2022-09-03T06:46:44;8.20;;;2.63;;
69161;SDS011;56269;51.738;21.652;2022-09-03T06:49:11;7.70;;;2.70;;
69161;SDS011;56269;51.738;21.652;2022-09-03T06:51:37;7.63;;;2.55;;
69161;SDS011;56269;51.738;21.652;2022-09-03T06:54:04;7.47;;;2.40;;
69161;SDS011;56269;51.738;21.652;2022-09-03T06:56:32;7.80;;;2.50;;
69161;SDS011;56269;51.738;21.652;2022-09-03T06:59:02;6.30;;;2.30;;
69161;SDS011;56269;51.738;21.652;2022-09-03T07:01:30;7.65;;;2.60;;
69161;SDS011;56269;51.738;21.652;2022-09-03T07:03:57;6.50;;;2.70;;
69161;SDS011;56269;51.738;21.652;2022-09-03T07:06:26;6.72;;;2.60;;
69161;SDS011;56269;51.738;21.652;2022-09-03T07:08:54;7.80;;;2.35;;
69161;SDS011;56269;51.738;21.652;2022-09-03T07:11:23;6.00;;;1.97;;
69161;SDS011;56269;51.738;21.652;2022-09-03T07:13:51;6.70;;;2.22;;
69161;SDS011;56269;51.738;21.652;2022-09-03T07:16:19;6.70;;;2.38;;
69161;SDS011;56269;51.738;21.652;2022-09-03T07:18:47;6.88;;;2.13;;
69161;SDS011;56269;51.738;21.652;2022-09-03T07:21:17;7.35;;;2.20;;
69161;SDS011;56269;51.738;21.652;2022-09-03T07:23:45;7.67;;;2.37;;
69161;SDS011;56269;51.738;21.652;2022-09-03T07:26:13;8.50;;;2.20;;
69161;SDS011;56269;51.738;21.652;2022-09-03T07:28:44;8.07;;;1.98;;
69161;SDS011;56269;51.738;21.652;2022-09-03T07:31:12;7.95;;;2.10;;
69161;SDS011;56269;51.738;21.652;2022-09-03T07:33:41;5.82;;;1.80;;
69161;SDS011;56269;51.738;21.652;2022-09-03T07:36:08;8.10;;;1.80;;
69161;SDS011;56269;51.738;21.652;2022-09-03T07:38:36;5.22;;;1.60;;
69161;SDS011;56269;51.738;21.652;2022-09-03T07:41:04;6.45;;;2.20;;
69161;SDS011;56269;51.738;21.652;2022-09-03T07:43:34;5.03;;;1.83;;
69161;SDS011;56269;51.738;21.652;2022-09-03T07:46:05;8.45;;;1.83;;
69161;SDS011;56269;51.738;21.652;2022-09-03T07:48:32;7.10;;;2.47;;
69161;SDS011;56269;51.738;21.652;2022-09-03T07:50:58;4.72;;;1.63;;
69161;SDS011;56269;51.738;21.652;2022-09-03T07:53:28;4.95;;;1.52;;
69161;SDS011;56269;51.738;21.652;2022-09-03T07:56:03;6.63;;;1.30;;
69161;SDS011;56269;51.738;21.652;2022-09-03T07:58:31;5.65;;;1.73;;
69161;SDS011;56269;51.738;21.652;2022-09-03T08:01:02;6.40;;;1.70;;
69161;SDS011;56269;51.738;21.652;2022-09-03T08:03:33;5.35;;;1.40;;
69161;SDS011;56269;51.738;21.652;2022-09-03T08:06:01;3.92;;;1.30;;
69161;SDS011;56269;51.738;21.652;2022-09-03T08:08:28;4.22;;;1.30;;
69161;SDS011;56269;51.738;21.652;2022-09-03T08:11:02;4.68;;;1.30;;
69161;SDS011;56269;51.738;21.652;2022-09-03T08:13:56;5.10;;;1.17;;
69161;SDS011;56269;51.738;21.652;2022-09-03T08:16:27;3.78;;;1.10;;
69161;SDS011;56269;51.738;21.652;2022-09-03T08:19:00;3.28;;;1.20;;
69161;SDS011;56269;51.738;21.652;2022-09-03T08:21:26;3.80;;;1.20;;
69161;SDS011;56269;51.738;21.652;2022-09-03T08:23:53;4.53;;;1.40;;
69161;SDS011;56269;51.738;21.652;2022-09-03T08:26:28;4.37;;;1.30;;
69161;SDS011;56269;51.738;21.652;2022-09-03T08:28:56;5.10;;;1.50;;
69161;SDS011;56269;51.738;21.652;2022-09-03T08:31:22;4.63;;;1.40;;
69161;SDS011;56269;51.738;21.652;2022-09-03T08:33:50;4.60;;;1.30;;
69161;SDS011;56269;51.738;21.652;2022-09-03T08:36:18;3.95;;;1.25;;
69161;SDS011;56269;51.738;21.652;2022-09-03T08:38:49;3.07;;;0.90;;
69161;SDS011;56269;51.738;21.652;2022-09-03T08:41:23;3.88;;;1.10;;
69161;SDS011;56269;51.738;21.652;2022-09-03T08:46:50;3.85;;;1.13;;
69161;SDS011;56269;51.738;21.652;2022-09-03T08:49:24;3.00;;;1.17;;
69161;SDS011;56269;51.738;21.652;2022-09-03T08:52:19;3.50;;;1.10;;
69161;SDS011;56269;51.738;21.652;2022-09-03T08:54:50;3.67;;;1.10;;
69161;SDS011;56269;51.738;21.652;2022-09-03T08:57:24;5.55;;;1.35;;
69161;SDS011;56269;51.738;21.652;2022-09-03T08:59:53;4.88;;;1.38;;
69161;SDS011;56269;51.738;21.652;2022-09-03T09:13:48;3.13;;;1.25;;
69161;SDS011;56269;51.738;21.652;2022-09-03T09:19:20;4.10;;;1.30;;
69161;SDS011;56269;51.738;21.652;2022-09-03T09:21:58;3.95;;;1.10;;
69161;SDS011;56269;51.738;21.652;2022-09-03T09:24:31;7.07;;;1.17;;
69161;SDS011;56269;51.738;21.652;2022-09-03T09:27:05;3.78;;;1.38;;
69161;SDS011;56269;51.738;21.652;2022-09-03T09:29:34;4.10;;;1.15;;
69161;SDS011;56269;51.738;21.652;2022-09-03T09:32:02;5.93;;;1.17;;
69161;SDS011;56269;51.738;21.652;2022-09-03T09:34:36;3.85;;;1.15;;
69161;SDS011;56269;51.738;21.652;2022-09-03T09:37:05;4.30;;;1.27;;
69161;SDS011;56269;51.738;21.652;2022-09-03T09:39:36;4.55;;;1.15;;
69161;SDS011;56269;51.738;21.652;2022-09-03T09:42:09;4.53;;;1.20;;
69161;SDS011;56269;51.738;21.652;2022-09-03T09:44:41;3.70;;;1.00;;
69161;SDS011;56269;51.738;21.652;2022-09-03T09:47:12;2.65;;;1.05;;
69161;SDS011;56269;51.738;21.652;2022-09-03T09:49:54;5.32;;;1.10;;
69161;SDS011;56269;51.738;21.652;2022-09-03T09:52:22;4.25;;;1.20;;
69161;SDS011;56269;51.738;21.652;2022-09-03T09:54:52;3.53;;;1.10;;
69161;SDS011;56269;51.738;21.652;2022-09-03T09:57:29;5.00;;;1.20;;
69161;SDS011;56269;51.738;21.652;2022-09-03T10:00:28;2.85;;;1.08;;
69161;SDS011;56269;51.738;21.652;2022-09-03T10:02:49;3.45;;;1.10;;
69161;SDS011;56269;51.738;21.652;2022-09-03T10:05:20;3.60;;;1.10;;
69161;SDS011;56269;51.738;21.652;2022-09-03T10:07:59;4.40;;;1.33;;
69161;SDS011;56269;51.738;21.652;2022-09-03T10:10:31;5.33;;;1.40;;
69161;SDS011;56269;51.738;21.652;2022-09-03T10:13:14;6.85;;;1.30;;
69161;SDS011;56269;51.738;21.652;2022-09-03T10:15:45;3.13;;;1.15;;
69161;SDS011;56269;51.738;21.652;2022-09-03T10:24:02;5.00;;;1.30;;
69161;SDS011;56269;51.738;21.652;2022-09-03T10:26:31;4.80;;;1.30;;
69161;SDS011;56269;51.738;21.652;2022-09-03T10:29:00;6.38;;;1.20;;
69161;SDS011;56269;51.738;21.652;2022-09-03T10:34:21;6.82;;;1.50;;
69161;SDS011;56269;51.738;21.652;2022-09-03T10:48:10;4.80;;;1.20;;
69161;SDS011;56269;51.738;21.652;2022-09-03T10:50:47;6.00;;;1.53;;
69161;SDS011;56269;51.738;21.652;2022-09-03T10:56:24;3.58;;;1.25;;
69161;SDS011;56269;51.738;21.652;2022-09-03T11:07:59;4.97;;;1.33;;
69161;SDS011;56269;51.738;21.652;2022-09-03T11:10:37;4.45;;;1.25;;
69161;SDS011;56269;51.738;21.652;2022-09-03T11:13:21;3.30;;;1.20;;
69161;SDS011;56269;51.738;21.652;2022-09-03T11:15:54;11.45;;;1.40;;
69161;SDS011;56269;51.738;21.652;2022-09-03T11:21:10;4.45;;;1.10;;
69161;SDS011;56269;51.738;21.652;2022-09-03T11:24:00;3.42;;;1.25;;
69161;SDS011;56269;51.738;21.652;2022-09-03T11:26:33;5.45;;;1.27;;
69161;SDS011;56269;51.738;21.652;2022-09-03T11:29:18;3.55;;;1.23;;
69161;SDS011;56269;51.738;21.652;2022-09-03T11:34:27;6.50;;;1.40;;
69161;SDS011;56269;51.738;21.652;2022-09-03T11:39:41;3.78;;;1.30;;
69161;SDS011;56269;51.738;21.652;2022-09-03T11:42:21;4.23;;;1.33;;
69161;SDS011;56269;51.738;21.652;2022-09-03T11:44:58;5.38;;;1.35;;
69161;SDS011;56269;51.738;21.652;2022-09-03T11:47:39;5.88;;;1.70;;
69161;SDS011;56269;51.738;21.652;2022-09-03T11:50:15;5.20;;;1.65;;
69161;SDS011;56269;51.738;21.652;2022-09-03T11:52:46;5.93;;;1.70;;
69161;SDS011;56269;51.738;21.652;2022-09-03T11:55:26;9.87;;;1.80;;
69161;SDS011;56269;51.738;21.652;2022-09-03T11:58:09;5.28;;;1.52;;
69161;SDS011;56269;51.738;21.652;2022-09-03T12:00:54;5.15;;;1.60;;
69161;SDS011;56269;51.738;21.652;2022-09-03T12:03:25;4.72;;;1.80;;
69161;SDS011;56269;51.738;21.652;2022-09-03T12:06:08;6.15;;;1.80;;
69161;SDS011;56269;51.738;21.652;2022-09-03T12:08:49;6.50;;;2.10;;
69161;SDS011;56269;51.738;21.652;2022-09-03T12:18:00;5.13;;;1.65;;
69161;SDS011;56269;51.738;21.652;2022-09-03T12:23:26;5.03;;;1.67;;
69161;SDS011;56269;51.738;21.652;2022-09-03T12:25:58;4.90;;;1.77;;
69161;SDS011;56269;51.738;21.652;2022-09-03T12:28:29;7.00;;;1.90;;
69161;SDS011;56269;51.738;21.652;2022-09-03T12:31:04;6.95;;;2.13;;
69161;SDS011;56269;51.738;21.652;2022-09-03T12:33:46;5.43;;;2.30;;
69161;SDS011;56269;51.738;21.652;2022-09-03T12:36:18;6.40;;;2.10;;
69161;SDS011;56269;51.738;21.652;2022-09-03T12:38:48;8.43;;;2.15;;
69161;SDS011;56269;51.738;21.652;2022-09-03T12:41:32;6.88;;;2.25;;
69161;SDS011;56269;51.738;21.652;2022-09-03T12:43:59;7.22;;;2.10;;
69161;SDS011;56269;51.738;21.652;2022-09-03T12:46:30;5.45;;;2.15;;
69161;SDS011;56269;51.738;21.652;2022-09-03T12:49:02;5.83;;;2.00;;
69161;SDS011;56269;51.738;21.652;2022-09-03T12:51:33;6.22;;;1.98;;
69161;SDS011;56269;51.738;21.652;2022-09-03T12:54:01;6.18;;;2.10;;
69161;SDS011;56269;51.738;21.652;2022-09-03T12:56:30;6.65;;;2.10;;
69161;SDS011;56269;51.738;21.652;2022-09-03T12:59:06;5.97;;;2.00;;
69161;SDS011;56269;51.738;21.652;2022-09-03T13:01:38;7.60;;;2.10;;
69161;SDS011;56269;51.738;21.652;2022-09-03T13:04:17;6.30;;;2.03;;
69161;SDS011;56269;51.738;21.652;2022-09-03T13:09:18;5.10;;;2.05;;
69161;SDS011;56269;51.738;21.652;2022-09-03T13:11:46;7.78;;;2.13;;
69161;SDS011;56269;51.738;21.652;2022-09-03T13:14:13;6.13;;;2.40;;
69161;SDS011;56269;51.738;21.652;2022-09-03T13:16:47;7.28;;;2.53;;
69161;SDS011;56269;51.738;21.652;2022-09-03T13:19:42;6.75;;;2.38;;
69161;SDS011;56269;51.738;21.652;2022-09-03T13:25:29;7.57;;;2.70;;
69161;SDS011;56269;51.738;21.652;2022-09-03T13:31:01;6.40;;;2.55;;
69161;SDS011;56269;51.738;21.652;2022-09-03T13:33:31;5.88;;;2.28;;
69161;SDS011;56269;51.738;21.652;2022-09-03T13:36:04;4.57;;;1.70;;
69161;SDS011;56269;51.738;21.652;2022-09-03T13:38:59;5.90;;;2.20;;
69161;SDS011;56269;51.738;21.652;2022-09-03T13:47:19;5.68;;;2.22;;
69161;SDS011;56269;51.738;21.652;2022-09-03T13:50:18;5.95;;;2.20;;
69161;SDS011;56269;51.738;21.652;2022-09-03T13:52:58;8.43;;;2.33;;
69161;SDS011;56269;51.738;21.652;2022-09-03T13:55:32;6.57;;;2.27;;
69161;SDS011;56269;51.738;21.652;2022-09-03T13:58:10;5.88;;;2.35;;
69161;SDS011;56269;51.738;21.652;2022-09-03T14:01:14;6.78;;;2.22;;
69161;SDS011;56269;51.738;21.652;2022-09-03T14:03:49;6.97;;;1.92;;
69161;SDS011;56269;51.738;21.652;2022-09-03T14:12:18;5.30;;;2.15;;
69161;SDS011;56269;51.738;21.652;2022-09-03T14:17:39;7.72;;;2.35;;
69161;SDS011;56269;51.738;21.652;2022-09-03T14:20:12;6.00;;;2.42;;
69161;SDS011;56269;51.738;21.652;2022-09-03T14:25:22;5.13;;;2.00;;
69161;SDS011;56269;51.738;21.652;2022-09-03T14:27:50;6.25;;;2.30;;
69161;SDS011;56269;51.738;21.652;2022-09-03T14:33:16;6.28;;;2.20;;
69161;SDS011;56269;51.738;21.652;2022-09-03T14:43:46;6.85;;;1.90;;
69161;SDS011;56269;51.738;21.652;2022-09-03T15:00:48;6.20;;;2.00;;
69161;SDS011;56269;51.738;21.652;2022-09-03T15:11:43;8.93;;;2.30;;
69161;SDS011;56269;51.738;21.652;2022-09-03T15:17:00;7.20;;;2.37;;
69161;SDS011;56269;51.738;21.652;2022-09-03T15:22:11;5.90;;;2.00;;
69161;SDS011;56269;51.738;21.652;2022-09-03T15:25:18;5.25;;;1.77;;
69161;SDS011;56269;51.738;21.652;2022-09-03T15:27:59;4.30;;;1.58;;
69161;SDS011;56269;51.738;21.652;2022-09-03T15:30:48;5.23;;;1.80;;
69161;SDS011;56269;51.738;21.652;2022-09-03T15:33:32;6.57;;;2.10;;
69161;SDS011;56269;51.738;21.652;2022-09-03T15:44:50;7.30;;;2.50;;
69161;SDS011;56269;51.738;21.652;2022-09-03T15:47:40;6.32;;;2.45;;
69161;SDS011;56269;51.738;21.652;2022-09-03T15:50:47;5.47;;;2.33;;
69161;SDS011;56269;51.738;21.652;2022-09-03T15:53:35;7.38;;;2.50;;
69161;SDS011;56269;51.738;21.652;2022-09-03T15:56:09;5.80;;;2.50;;
69161;SDS011;56269;51.738;21.652;2022-09-03T15:58:44;6.83;;;2.67;;
69161;SDS011;56269;51.738;21.652;2022-09-03T16:17:42;4.95;;;1.70;;
69161;SDS011;56269;51.738;21.652;2022-09-03T16:21:11;4.97;;;1.60;;
69161;SDS011;56269;51.738;21.652;2022-09-03T16:25:55;5.63;;;1.90;;
69161;SDS011;56269;51.738;21.652;2022-09-03T16:28:29;6.25;;;2.10;;
69161;SDS011;56269;51.738;21.652;2022-09-03T16:33:56;8.70;;;2.20;;
69161;SDS011;56269;51.738;21.652;2022-09-03T16:36:38;16.23;;;2.72;;
69161;SDS011;56269;51.738;21.652;2022-09-03T16:39:35;6.20;;;2.50;;
69161;SDS011;56269;51.738;21.652;2022-09-03T16:53:53;8.23;;;2.23;;
69161;SDS011;56269;51.738;21.652;2022-09-03T16:59:27;7.95;;;2.50;;
69161;SDS011;56269;51.738;21.652;2022-09-03T17:05:21;5.85;;;2.30;;
69161;SDS011;56269;51.738;21.652;2022-09-03T17:08:14;6.30;;;2.30;;
69161;SDS011;56269;51.738;21.652;2022-09-03T17:13:37;7.43;;;2.50;;
69161;SDS011;56269;51.738;21.652;2022-09-03T17:22:20;6.37;;;2.43;;
69161;SDS011;56269;51.738;21.652;2022-09-03T17:25:06;8.40;;;3.00;;
69161;SDS011;56269;51.738;21.652;2022-09-03T17:28:00;8.20;;;2.67;;
69161;SDS011;56269;51.738;21.652;2022-09-03T17:33:48;14.48;;;4.28;;
69161;SDS011;56269;51.738;21.652;2022-09-03T17:41:50;12.35;;;5.40;;
69161;SDS011;56269;51.738;21.652;2022-09-03T17:44:24;15.52;;;6.43;;
69161;SDS011;56269;51.738;21.652;2022-09-03T17:50:11;19.77;;;7.73;;
69161;SDS011;56269;51.738;21.652;2022-09-03T17:57:53;15.10;;;7.18;;
69161;SDS011;56269;51.738;21.652;2022-09-03T18:00:51;18.70;;;7.95;;
69161;SDS011;56269;51.738;21.652;2022-09-03T18:03:26;19.37;;;7.50;;
69161;SDS011;56269;51.738;21.652;2022-09-03T18:06:00;15.15;;;7.20;;
69161;SDS011;56269;51.738;21.652;2022-09-03T18:17:09;17.13;;;4.77;;
69161;SDS011;56269;51.738;21.652;2022-09-03T18:19:45;18.88;;;5.10;;
69161;SDS011;56269;51.738;21.652;2022-09-03T18:25:45;11.00;;;4.43;;
69161;SDS011;56269;51.738;21.652;2022-09-03T18:28:39;13.07;;;4.28;;
69161;SDS011;56269;51.738;21.652;2022-09-03T18:31:29;10.40;;;3.60;;
69161;SDS011;56269;51.738;21.652;2022-09-03T18:34:20;11.07;;;3.55;;
69161;SDS011;56269;51.738;21.652;2022-09-03T18:37:15;11.02;;;3.80;;
69161;SDS011;56269;51.738;21.652;2022-09-03T18:40:04;11.27;;;4.00;;
69161;SDS011;56269;51.738;21.652;2022-09-03T18:43:12;10.57;;;4.00;;
69161;SDS011;56269;51.738;21.652;2022-09-03T18:51:58;13.45;;;5.15;;
69161;SDS011;56269;51.738;21.652;2022-09-03T18:55:00;15.52;;;7.72;;
69161;SDS011;56269;51.738;21.652;2022-09-03T18:57:57;12.15;;;5.45;;
69161;SDS011;56269;51.738;21.652;2022-09-03T19:14:01;12.23;;;4.60;;
69161;SDS011;56269;51.738;21.652;2022-09-03T19:16:58;12.63;;;5.00;;
69161;SDS011;56269;51.738;21.652;2022-09-03T19:22:35;12.60;;;4.70;;
69161;SDS011;56269;51.738;21.652;2022-09-03T19:25:21;12.55;;;4.47;;
69161;SDS011;56269;51.738;21.652;2022-09-03T19:31:17;14.80;;;5.97;;
69161;SDS011;56269;51.738;21.652;2022-09-03T19:34:20;17.42;;;6.82;;
69161;SDS011;56269;51.738;21.652;2022-09-03T19:40:37;18.52;;;7.60;;
69161;SDS011;56269;51.738;21.652;2022-09-03T19:43:38;15.50;;;7.15;;
69161;SDS011;56269;51.738;21.652;2022-09-03T19:55:11;14.80;;;6.72;;
69161;SDS011;56269;51.738;21.652;2022-09-03T19:58:01;18.52;;;7.85;;
69161;SDS011;56269;51.738;21.652;2022-09-03T20:00:45;19.83;;;6.93;;
69161;SDS011;56269;51.738;21.652;2022-09-03T20:03:30;17.92;;;7.45;;
69161;SDS011;56269;51.738;21.652;2022-09-03T20:06:15;18.77;;;8.63;;
69161;SDS011;56269;51.738;21.652;2022-09-03T20:09:03;20.42;;;8.20;;
69161;SDS011;56269;51.738;21.652;2022-09-03T20:11:52;18.38;;;8.32;;
69161;SDS011;56269;51.738;21.652;2022-09-03T20:14:21;22.83;;;9.17;;
69161;SDS011;56269;51.738;21.652;2022-09-03T20:25:24;19.77;;;8.20;;
69161;SDS011;56269;51.738;21.652;2022-09-03T20:28:47;19.63;;;8.70;;